createdAt,value
2019-05-02T00:01:41.299Z,89.42
2019-05-02T00:04:12.437Z,81.05
2019-05-02T00:06:38.042Z,77.90
2019-05-02T00:09:09.276Z,83.55
2019-05-02T00:11:35.885Z,78.78
2019-05-02T00:14:04.839Z,79.03
2019-05-02T00:16:31.312Z,72.92
2019-05-02T00:18:57.676Z,76.95
2019-05-02T00:21:24.261Z,77.47
2019-05-02T00:23:50.806Z,74.25
2019-05-02T00:26:17.281Z,76.65
2019-05-02T00:28:47.952Z,84.77
2019-05-02T00:31:12.844Z,80.87
2019-05-02T00:33:39.667Z,85.85
2019-05-02T00:36:06.156Z,82.88
2019-05-02T00:38:33.394Z,88.72
2019-05-02T00:41:02.267Z,82.72
2019-05-02T00:43:34.317Z,86.40
2019-05-02T00:45:59.824Z,82.10
2019-05-02T00:48:46.851Z,83.42
2019-05-02T00:51:13.321Z,86.90
2019-05-02T00:53:39.903Z,76.57
2019-05-02T00:56:09.045Z,86.22
2019-05-02T00:58:36.529Z,82.57
2019-05-02T01:01:14.676Z,81.85
2019-05-02T01:03:47.201Z,74.97
2019-05-02T01:06:14.550Z,88.90
2019-05-02T01:08:39.703Z,77.35
2019-05-02T01:11:06.152Z,78.62
2019-05-02T01:13:33.031Z,82.27
2019-05-02T01:15:59.489Z,80.70
2019-05-02T01:18:26.058Z,83.15
2019-05-02T01:20:52.711Z,77.97
2019-05-02T01:23:23.003Z,87.02
2019-05-02T01:25:52.662Z,67.82
2019-05-02T01:28:24.017Z,80.83
2019-05-02T01:31:01.518Z,83.58
2019-05-02T01:33:36.845Z,77.25
2019-05-02T01:36:08.168Z,71.72
2019-05-02T01:38:36.656Z,90.22
2019-05-02T01:41:03.303Z,75.85
2019-05-02T01:43:30.684Z,90.57
2019-05-02T01:45:57.234Z,97.08
2019-05-02T01:48:24.991Z,80.50
2019-05-02T01:50:51.551Z,82.78
2019-05-02T01:53:18.188Z,89.00
2019-05-02T01:55:44.760Z,85.45
2019-05-02T01:58:14.955Z,83.30
2019-05-02T02:00:40.922Z,94.30
2019-05-02T02:03:09.172Z,97.60
2019-05-02T02:05:36.676Z,96.10
2019-05-02T02:08:04.234Z,94.20
2019-05-02T02:10:30.909Z,90.20
2019-05-02T02:13:04.612Z,85.62
2019-05-02T02:15:28.969Z,96.55
2019-05-02T02:17:55.190Z,82.72
2019-05-02T02:20:26.404Z,96.40
2019-05-02T02:23:10.270Z,87.15
2019-05-02T02:25:40.456Z,87.90
2019-05-02T02:28:07.099Z,85.67
2019-05-02T02:30:33.488Z,88.78
2019-05-02T02:33:06.976Z,77.53
2019-05-02T02:35:28.394Z,92.47
2019-05-02T02:37:55.699Z,86.67
2019-05-02T02:40:32.736Z,80.53
2019-05-02T02:42:50.893Z,90.55
2019-05-02T02:45:26.178Z,83.35
2019-05-02T02:47:53.065Z,76.87
2019-05-02T02:50:20.897Z,79.72
2019-05-02T02:52:47.348Z,92.80
2019-05-02T02:55:16.066Z,81.70
2019-05-02T02:57:42.307Z,77.45
2019-05-02T03:00:11.150Z,76.35
2019-05-02T03:02:47.500Z,74.22
2019-05-02T03:05:06.017Z,71.50
2019-05-02T03:07:32.574Z,75.42
2019-05-02T03:10:05.422Z,68.97
2019-05-02T03:12:36.201Z,78.83
2019-05-02T03:15:00.512Z,83.07
2019-05-02T03:17:28.764Z,72.97
2019-05-02T03:20:01.115Z,76.07
2019-05-02T03:22:23.989Z,72.08
2019-05-02T03:24:50.661Z,83.62
2019-05-02T03:27:17.312Z,73.40
2019-05-02T03:29:44.488Z,67.05
2019-05-02T03:32:16.164Z,77.05
2019-05-02T03:34:52.950Z,70.28
2019-05-02T03:37:11.344Z,75.70
2019-05-02T03:39:37.618Z,63.45
2019-05-02T03:42:05.067Z,84.05
2019-05-02T03:44:32.283Z,76.87
2019-05-02T03:47:02.049Z,80.53
2019-05-02T03:49:27.647Z,82.22
2019-05-02T03:51:55.893Z,75.37
2019-05-02T03:54:22.476Z,79.35
2019-05-02T03:56:51.160Z,81.32
2019-05-02T03:59:17.206Z,79.53
2019-05-02T04:01:43.983Z,79.45
2019-05-02T04:04:14.215Z,83.22
2019-05-02T04:06:40.667Z,80.80
2019-05-02T04:09:07.316Z,76.07
2019-05-02T04:11:39.178Z,86.67
2019-05-02T04:14:15.153Z,78.35
2019-05-02T04:16:32.044Z,77.17
2019-05-02T04:19:01.194Z,85.60
2019-05-02T04:21:28.164Z,85.47
2019-05-02T04:24:07.658Z,88.42
2019-05-02T04:26:23.913Z,79.07
2019-05-02T04:28:51.562Z,88.52
2019-05-02T04:31:24.904Z,83.45
2019-05-02T04:33:47.015Z,84.55
2019-05-02T04:36:17.545Z,84.25
2019-05-02T04:38:47.966Z,91.97
2019-05-02T04:41:11.444Z,86.12
2019-05-02T04:43:40.537Z,78.47
2019-05-02T04:46:12.100Z,79.58
2019-05-02T04:48:40.363Z,81.65
2019-05-02T04:51:10.075Z,84.70
2019-05-02T04:53:36.955Z,83.60
2019-05-02T04:56:06.644Z,86.02
2019-05-02T04:58:33.400Z,83.35
2019-05-02T05:01:01.530Z,79.80
2019-05-02T05:03:28.299Z,82.60
2019-05-02T05:05:59.408Z,77.12
2019-05-02T05:08:26.505Z,85.72
2019-05-02T05:10:50.884Z,76.80
2019-05-02T05:13:22.806Z,84.35
2019-05-02T05:15:49.456Z,88.47
2019-05-02T05:18:14.653Z,82.50
2019-05-02T05:20:45.945Z,86.32
2019-05-02T05:23:15.661Z,84.60
2019-05-02T05:25:44.344Z,81.75
2019-05-02T05:28:10.894Z,91.55
2019-05-02T05:30:44.936Z,84.92
2019-05-02T05:33:09.920Z,101.97
2019-05-02T05:35:34.445Z,86.00
2019-05-02T05:38:00.929Z,73.33
2019-05-02T05:40:30.932Z,83.20
2019-05-02T05:42:57.369Z,86.85
2019-05-02T05:45:24.293Z,78.83
2019-05-02T05:47:52.451Z,82.15
2019-05-02T05:50:19.215Z,97.08
2019-05-02T05:52:47.274Z,76.67
2019-05-02T05:55:20.495Z,75.55
2019-05-02T05:57:42.334Z,84.67
2019-05-02T06:00:15.961Z,77.75
2019-05-02T06:02:53.297Z,81.80
2019-05-02T06:05:07.979Z,86.22
2019-05-02T06:07:41.891Z,83.80
2019-05-02T06:10:08.003Z,80.55
2019-05-02T06:12:35.503Z,84.55
2019-05-02T06:15:02.290Z,80.80
2019-05-02T06:17:30.475Z,84.00
2019-05-02T06:19:57.226Z,86.55
2019-05-02T06:22:25.608Z,83.97
2019-05-02T06:24:52.217Z,78.33
2019-05-02T06:27:20.785Z,80.38
2019-05-02T06:29:51.074Z,77.10
2019-05-02T06:32:19.183Z,82.30
2019-05-02T06:34:46.539Z,72.45
2019-05-02T06:37:13.443Z,74.40
2019-05-02T06:39:41.205Z,67.58
2019-05-02T06:42:07.879Z,76.67
2019-05-02T06:44:34.301Z,75.20
2019-05-02T06:47:04.340Z,74.32
2019-05-02T06:49:29.298Z,77.27
2019-05-02T06:51:56.375Z,74.58
2019-05-02T06:54:24.595Z,71.85
2019-05-02T06:56:51.519Z,73.90
2019-05-02T06:59:20.144Z,78.72
2019-05-02T07:01:46.474Z,77.25
2019-05-02T07:04:33.085Z,70.45
2019-05-02T07:07:00.058Z,75.90
2019-05-02T07:09:40.029Z,75.00
2019-05-02T07:11:57.819Z,63.05
2019-05-02T07:14:25.576Z,64.97
2019-05-02T07:17:11.066Z,52.80
2019-05-02T07:19:39.549Z,61.80
2019-05-02T07:22:06.345Z,59.85
2019-05-02T07:24:32.904Z,62.88
2019-05-02T07:27:01.942Z,65.85
2019-05-02T07:29:27.994Z,63.38
2019-05-02T07:31:54.949Z,62.50
2019-05-02T07:34:21.419Z,59.90
2019-05-02T07:36:47.987Z,65.08
2019-05-02T07:39:15.551Z,68.78
2019-05-02T07:41:42.303Z,65.60
2019-05-02T07:44:08.790Z,58.40
2019-05-02T07:46:35.636Z,78.10
2019-05-02T07:49:02.817Z,61.60
2019-05-02T07:51:29.404Z,65.80
2019-05-02T07:53:56.070Z,65.15
2019-05-02T07:56:22.965Z,70.87
2019-05-02T07:58:50.120Z,61.00
2019-05-02T08:01:16.719Z,67.03
2019-05-02T08:03:43.263Z,64.42
2019-05-02T08:06:09.952Z,73.97
2019-05-02T08:08:36.753Z,67.27
2019-05-02T08:11:03.752Z,63.60
2019-05-02T08:13:31.563Z,66.50
2019-05-02T08:15:58.221Z,58.65
2019-05-02T08:18:29.785Z,63.83
2019-05-02T08:20:56.041Z,64.07
2019-05-02T08:23:25.774Z,62.45
2019-05-02T08:25:49.959Z,62.03
2019-05-02T08:28:24.529Z,68.50
2019-05-02T08:31:13.666Z,63.17
2019-05-02T08:33:39.226Z,58.63
2019-05-02T08:36:05.809Z,55.43
2019-05-02T08:38:32.466Z,59.40
2019-05-02T08:40:59.037Z,64.23
2019-05-02T08:43:25.587Z,60.17
2019-05-02T08:45:52.287Z,56.90
2019-05-02T08:48:18.644Z,57.53
2019-05-02T08:50:45.266Z,55.33
2019-05-02T08:53:14.246Z,58.20
2019-05-02T08:55:41.410Z,55.30
2019-05-02T08:58:14.543Z,58.03
2019-05-02T09:00:39.291Z,56.60
2019-05-02T09:03:06.025Z,57.67
2019-05-02T09:05:36.875Z,49.37
2019-05-02T09:08:01.056Z,50.17
2019-05-02T09:10:27.740Z,50.30
2019-05-02T09:12:54.428Z,45.90
2019-05-02T09:15:22.356Z,47.67
2019-05-02T09:17:54.917Z,48.40
2019-05-02T09:20:20.905Z,44.90
2019-05-02T09:22:46.626Z,51.50
2019-05-02T09:25:14.874Z,42.23
2019-05-02T09:27:42.110Z,46.13
2019-05-02T09:30:11.892Z,45.80
2019-05-02T09:32:38.482Z,45.43
2019-05-02T09:35:06.347Z,47.90
2019-05-02T09:37:33.132Z,50.03
2019-05-02T09:40:02.058Z,48.43
2019-05-02T09:42:27.955Z,51.23
2019-05-02T09:44:57.011Z,50.70
2019-05-02T09:47:27.508Z,49.47
2019-05-02T09:50:07.173Z,49.10
2019-05-02T09:52:39.660Z,52.67
2019-05-02T09:55:05.028Z,48.60
2019-05-02T09:57:32.093Z,48.00
2019-05-02T09:59:58.836Z,48.27
2019-05-02T10:02:25.591Z,46.20
2019-05-02T10:04:52.480Z,46.57
2019-05-02T10:07:19.011Z,44.73
2019-05-02T10:09:45.634Z,44.17
2019-05-02T10:12:12.375Z,41.60
2019-05-02T10:14:39.069Z,49.67
2019-05-02T10:17:07.339Z,50.43
2019-05-02T10:19:34.121Z,47.40
2019-05-02T10:22:01.893Z,47.97
2019-05-02T10:24:28.548Z,48.07
2019-05-02T10:27:03.231Z,40.87
2019-05-02T10:29:28.337Z,45.23
2019-05-02T10:31:52.631Z,49.70
2019-05-02T10:34:19.693Z,36.03
2019-05-02T10:36:51.351Z,41.37
2019-05-02T10:39:15.879Z,42.53
2019-05-02T10:41:43.784Z,43.90
2019-05-02T10:44:10.354Z,42.13
2019-05-02T10:46:41.723Z,37.77
2019-05-02T10:49:12.772Z,41.80
2019-05-02T10:51:43.425Z,36.23
2019-05-02T10:54:07.859Z,39.03
2019-05-02T10:56:34.421Z,39.47
2019-05-02T10:59:02.260Z,37.33
2019-05-02T11:01:32.344Z,37.73
2019-05-02T11:04:07.061Z,37.10
2019-05-02T11:06:37.246Z,41.03
2019-05-02T11:09:03.126Z,37.93
2019-05-02T11:11:32.236Z,37.90
2019-05-02T11:14:05.591Z,40.43
2019-05-02T11:16:33.889Z,35.20
2019-05-02T11:19:08.309Z,44.37
2019-05-02T11:21:34.848Z,39.70
2019-05-02T11:24:02.461Z,38.83
2019-05-02T11:26:29.476Z,41.20
2019-05-02T11:28:55.938Z,42.20
2019-05-02T11:31:22.609Z,41.80
2019-05-02T11:33:52.497Z,35.17
2019-05-02T11:36:18.568Z,34.87
2019-05-02T11:38:48.065Z,35.57
2019-05-02T11:41:13.507Z,39.40
2019-05-02T11:43:42.411Z,38.57
2019-05-02T11:46:08.257Z,38.20
2019-05-02T11:48:34.804Z,42.97
2019-05-02T11:51:02.717Z,41.80
2019-05-02T11:53:29.722Z,45.20
2019-05-02T11:55:58.364Z,41.67
2019-05-02T11:58:24.489Z,45.40
2019-05-02T12:00:52.251Z,39.27
2019-05-02T12:03:21.964Z,32.50
2019-05-02T12:05:48.879Z,44.27
2019-05-02T12:08:15.824Z,36.43
2019-05-02T12:10:42.546Z,38.43
2019-05-02T12:13:13.839Z,29.60
2019-05-02T12:15:37.676Z,33.80
2019-05-02T12:18:04.344Z,32.60
2019-05-02T12:20:33.942Z,33.33
2019-05-02T12:22:59.295Z,31.57
2019-05-02T12:25:25.740Z,32.13
2019-05-02T12:27:52.808Z,32.27
2019-05-02T12:30:19.663Z,31.47
2019-05-02T12:32:46.250Z,34.93
2019-05-02T12:35:12.993Z,34.07
2019-05-02T12:37:39.572Z,32.43
2019-05-02T12:40:26.083Z,35.13
2019-05-02T12:42:52.613Z,29.70
2019-05-02T12:45:21.827Z,37.10
2019-05-02T12:47:47.968Z,33.80
2019-05-02T12:50:14.846Z,34.27
2019-05-02T12:52:42.884Z,30.70
2019-05-02T12:55:12.612Z,32.37
2019-05-02T12:57:38.893Z,32.10
2019-05-02T13:00:07.079Z,35.00
2019-05-02T13:02:35.433Z,28.43
2019-05-02T13:05:02.912Z,25.40
2019-05-02T13:07:31.642Z,26.10
2019-05-02T13:09:57.779Z,28.20
2019-05-02T13:12:26.257Z,27.07
2019-05-02T13:14:53.013Z,23.53
2019-05-02T13:17:19.489Z,23.90
2019-05-02T13:19:55.738Z,24.13
2019-05-02T13:22:19.177Z,28.80
2019-05-02T13:24:52.362Z,32.13
2019-05-02T13:27:43.356Z,29.20
2019-05-02T13:30:08.951Z,25.43
2019-05-02T13:32:37.404Z,27.93
2019-05-02T13:35:13.777Z,30.57
2019-05-02T13:37:42.321Z,23.80
2019-05-02T13:40:16.999Z,24.93
2019-05-02T13:42:42.922Z,23.63
2019-05-02T13:45:28.216Z,22.40
2019-05-02T13:47:54.882Z,25.43
2019-05-02T13:50:22.333Z,23.17
2019-05-02T13:52:52.903Z,20.80
2019-05-02T13:55:19.400Z,22.03
2019-05-02T13:57:46.997Z,19.40
2019-05-02T14:00:16.437Z,22.63
2019-05-02T14:02:43.311Z,19.47
2019-05-02T14:05:12.784Z,26.93
2019-05-02T14:07:42.927Z,25.60
2019-05-02T14:10:14.835Z,23.50
2019-05-02T14:12:43.217Z,25.70
2019-05-02T14:15:11.751Z,28.23
2019-05-02T14:17:38.462Z,23.03
2019-05-02T14:20:10.389Z,23.93
2019-05-02T14:22:34.136Z,29.10
2019-05-02T14:25:01.870Z,27.03
2019-05-02T14:27:28.590Z,28.57
2019-05-02T14:29:55.257Z,24.43
2019-05-02T14:32:26.283Z,23.37
2019-05-02T14:34:58.197Z,28.43
2019-05-02T14:37:24.764Z,32.83
2019-05-02T14:39:53.316Z,32.17
2019-05-02T14:42:22.184Z,27.63
2019-05-02T14:45:07.243Z,28.93
2019-05-02T14:47:19.469Z,31.83
2019-05-02T14:49:45.116Z,37.43
2019-05-02T14:52:12.677Z,32.50
2019-05-02T14:54:43.749Z,37.63
2019-05-02T14:59:59.349Z,36.33
2019-05-02T15:02:44.931Z,40.57
2019-05-02T15:05:12.760Z,33.57
2019-05-02T15:07:39.388Z,36.30
2019-05-02T15:10:06.709Z,35.77
2019-05-02T15:12:33.457Z,37.00
2019-05-02T15:14:59.939Z,37.83
2019-05-02T15:17:28.076Z,37.53
2019-05-02T15:19:54.689Z,38.53
2019-05-02T15:22:22.813Z,39.10
2019-05-02T15:24:49.700Z,37.17
2019-05-02T15:27:17.803Z,34.90
2019-05-02T15:29:44.435Z,36.00
2019-05-02T15:32:30.091Z,34.23
2019-05-02T15:35:17.718Z,32.37
2019-05-02T15:37:41.935Z,40.23
2019-05-02T15:42:42.136Z,42.90
2019-05-02T15:45:08.894Z,39.33
2019-05-02T15:47:37.120Z,44.60
2019-05-02T15:50:04.587Z,44.37
2019-05-02T15:52:35.868Z,47.63
2019-05-02T15:55:05.049Z,42.47
2019-05-02T15:57:37.997Z,47.20
2019-05-02T16:00:01.536Z,49.50
2019-05-02T16:02:31.989Z,54.67
2019-05-02T16:05:02.370Z,61.77
2019-05-02T16:07:27.436Z,76.03
2019-05-02T16:09:57.246Z,75.63
2019-05-02T16:12:27.197Z,58.73
2019-05-02T16:14:52.682Z,57.13
2019-05-02T16:17:22.228Z,54.27
2019-05-02T16:19:52.510Z,58.28
2019-05-02T16:22:22.473Z,59.23
2019-05-02T16:24:51.057Z,61.00
2019-05-02T16:27:23.724Z,62.57
2019-05-02T16:29:46.128Z,71.05
2019-05-02T16:32:14.621Z,79.17
2019-05-02T16:34:58.439Z,80.00
2019-05-02T16:37:25.137Z,84.55
2019-05-02T16:39:51.712Z,92.53
2019-05-02T16:42:18.349Z,93.07
2019-05-02T16:44:44.704Z,105.30
2019-05-02T16:47:13.646Z,85.97
2019-05-02T16:49:39.650Z,75.60
2019-05-02T16:52:08.542Z,62.13
2019-05-02T16:54:41.555Z,53.33
2019-05-02T16:57:03.134Z,54.93
2019-05-02T16:59:29.616Z,49.63
2019-05-02T17:01:59.580Z,54.50
2019-05-02T17:04:24.766Z,46.00
2019-05-02T17:06:56.879Z,53.70
2019-05-02T17:09:42.428Z,49.48
2019-05-02T17:12:11.841Z,49.67
2019-05-02T17:14:37.501Z,52.03
2019-05-02T17:17:04.278Z,44.10
2019-05-02T17:19:34.690Z,46.90
2019-05-02T17:21:59.112Z,46.85
2019-05-02T17:24:26.285Z,50.83
2019-05-02T17:26:52.851Z,38.65
2019-05-02T17:29:21.392Z,33.05
2019-05-02T17:31:50.083Z,37.17
2019-05-02T17:34:16.087Z,35.70
2019-05-02T17:36:44.492Z,30.43
2019-05-02T17:39:12.444Z,31.25
2019-05-02T17:41:42.346Z,32.25
2019-05-02T17:44:07.844Z,35.35
2019-05-02T17:46:36.589Z,30.08
2019-05-02T17:49:03.171Z,35.35
2019-05-02T17:51:33.914Z,26.25
2019-05-02T17:54:00.637Z,27.75
2019-05-02T17:56:27.584Z,37.45
2019-05-02T17:58:58.181Z,32.40
2019-05-02T18:01:33.338Z,30.17
2019-05-02T18:03:55.735Z,31.48
2019-05-02T18:06:32.427Z,28.55
2019-05-02T18:08:55.027Z,28.90
2019-05-02T18:11:19.261Z,27.62
2019-05-02T18:13:45.856Z,25.57
2019-05-02T18:16:15.646Z,26.77
2019-05-02T18:18:44.568Z,27.30
2019-05-02T18:21:08.957Z,32.15
2019-05-02T18:23:35.501Z,28.75
2019-05-02T18:26:05.178Z,32.30
2019-05-02T18:28:30.275Z,29.42
2019-05-02T18:30:57.303Z,33.67
2019-05-02T18:33:25.109Z,31.40
2019-05-02T18:35:52.652Z,29.20
2019-05-02T18:38:20.902Z,37.87
2019-05-02T18:40:47.830Z,34.13
2019-05-02T18:43:14.602Z,40.50
2019-05-02T18:45:42.562Z,37.70
2019-05-02T18:48:09.340Z,38.17
2019-05-02T18:50:42.545Z,38.08
2019-05-02T18:53:07.795Z,37.30
2019-05-02T18:55:34.960Z,33.63
2019-05-02T18:58:05.225Z,38.70
2019-05-02T19:00:37.616Z,38.92
2019-05-02T19:02:59.217Z,39.83
2019-05-02T19:05:26.553Z,40.70
2019-05-02T19:07:56.424Z,36.45
2019-05-02T19:10:21.665Z,53.17
2019-05-02T19:12:48.240Z,46.33
2019-05-02T19:15:15.652Z,40.30
2019-05-02T19:17:43.275Z,46.85
2019-05-02T19:20:28.319Z,44.48
2019-05-02T19:22:56.910Z,42.05
2019-05-02T19:25:23.382Z,47.20
2019-05-02T19:27:52.218Z,45.40
2019-05-02T19:30:26.316Z,43.98
2019-05-02T19:32:51.835Z,41.75
2019-05-02T19:35:18.389Z,40.80
2019-05-02T19:37:47.777Z,39.15
2019-05-02T19:40:20.076Z,43.57
2019-05-02T19:42:45.696Z,40.50
2019-05-02T19:45:16.746Z,40.10
2019-05-02T19:47:42.116Z,35.55
2019-05-02T19:50:15.663Z,36.88
2019-05-02T19:52:42.934Z,37.90
2019-05-02T19:55:19.470Z,36.93
2019-05-02T19:57:41.698Z,39.27
2019-05-02T20:00:08.138Z,32.65
2019-05-02T20:02:37.462Z,43.02
2019-05-02T20:05:04.501Z,39.20
2019-05-02T20:07:32.211Z,38.75
2019-05-02T20:09:59.139Z,64.67
2019-05-02T20:12:25.602Z,36.42
2019-05-02T20:14:52.187Z,53.17
2019-05-02T20:17:20.221Z,44.88
2019-05-02T20:19:49.037Z,41.08
2019-05-02T20:22:15.914Z,49.80
2019-05-02T20:24:55.429Z,47.85
2019-05-02T20:27:18.568Z,39.35
2019-05-02T20:29:45.138Z,38.77
2019-05-02T20:32:12.643Z,43.98
2019-05-02T20:34:39.184Z,42.78
2019-05-02T20:37:05.771Z,33.88
2019-05-02T20:39:32.239Z,38.33
2019-05-02T20:41:58.625Z,38.42
2019-05-02T20:44:25.084Z,34.05
2019-05-02T20:46:51.731Z,30.95
2019-05-02T20:49:18.208Z,37.35
2019-05-02T20:51:44.699Z,55.83
2019-05-02T20:54:12.543Z,49.85
2019-05-02T20:56:39.218Z,39.23
2019-05-02T20:59:05.670Z,37.53
2019-05-02T21:01:32.296Z,34.45
2019-05-02T21:03:58.824Z,37.00
2019-05-02T21:06:38.627Z,39.65
2019-05-02T21:09:02.198Z,39.10
2019-05-02T21:11:29.047Z,37.95
2019-05-02T21:13:55.800Z,38.88
2019-05-02T21:16:22.270Z,34.88
2019-05-02T21:18:48.628Z,32.05
2019-05-02T21:21:16.005Z,35.60
2019-05-02T21:23:47.295Z,21.97
2019-05-02T21:26:10.961Z,18.35
2019-05-02T21:28:37.523Z,15.60
2019-05-02T21:31:04.109Z,18.50
2019-05-02T21:33:38.386Z,14.10
2019-05-02T21:36:05.749Z,19.87
2019-05-02T21:38:32.426Z,18.87
2019-05-02T21:40:59.086Z,13.55
2019-05-02T21:43:25.648Z,12.40
2019-05-02T21:45:52.209Z,14.73
2019-05-02T21:48:19.186Z,17.80
2019-05-02T21:51:05.903Z,14.03
2019-05-02T21:53:36.900Z,14.47
2019-05-02T21:56:08.243Z,13.45
2019-05-02T21:58:34.714Z,15.00
2019-05-02T22:01:05.991Z,19.32
2019-05-02T22:03:32.534Z,22.02
2019-05-02T22:06:03.858Z,14.05
2019-05-02T22:08:32.183Z,14.43
2019-05-02T22:10:58.780Z,15.00
2019-05-02T22:13:25.433Z,15.70
2019-05-02T22:15:52.013Z,13.60
2019-05-02T22:18:18.446Z,18.37
2019-05-02T22:20:44.816Z,16.12
2019-05-02T22:23:11.860Z,12.50
2019-05-02T22:25:38.495Z,16.12
2019-05-02T22:28:04.993Z,15.55
2019-05-02T22:30:32.299Z,21.50
2019-05-02T22:32:58.987Z,17.15
2019-05-02T22:35:25.476Z,12.03
2019-05-02T22:37:53.825Z,13.68
2019-05-02T22:40:21.823Z,11.65
2019-05-02T22:42:48.311Z,12.07
2019-05-02T22:45:14.771Z,12.25
2019-05-02T22:47:42.614Z,13.08
2019-05-02T22:50:09.933Z,13.22
2019-05-02T22:52:36.441Z,12.10
2019-05-02T22:55:08.236Z,12.47
2019-05-02T22:57:34.687Z,12.23
2019-05-02T23:00:01.922Z,13.00
2019-05-02T23:02:28.723Z,13.83
2019-05-02T23:04:55.182Z,12.70
2019-05-02T23:07:22.252Z,13.90
2019-05-02T23:09:49.035Z,10.30
2019-05-02T23:12:15.512Z,10.85
2019-05-02T23:14:42.156Z,11.80
2019-05-02T23:17:08.712Z,16.25
2019-05-02T23:19:35.280Z,17.12
2019-05-02T23:22:02.232Z,15.15
2019-05-02T23:24:39.038Z,12.10
2019-05-02T23:27:22.429Z,17.50
2019-05-02T23:29:49.091Z,12.15
2019-05-02T23:32:15.833Z,14.03
2019-05-02T23:34:42.759Z,11.63
2019-05-02T23:37:09.499Z,14.28
2019-05-02T23:39:35.994Z,15.98
2019-05-02T23:42:02.624Z,12.43
2019-05-02T23:44:29.004Z,12.13
2019-05-02T23:46:55.458Z,13.18
2019-05-02T23:49:22.123Z,14.20
2019-05-02T23:51:48.882Z,15.28
2019-05-02T23:54:15.362Z,26.97
2019-05-02T23:56:42.980Z,11.63
2019-05-02T23:59:11.863Z,11.28
